createdAt,value
2023-02-13T00:01:00.072Z,7.30
2023-02-13T00:03:27.757Z,7.30
2023-02-13T00:05:55.555Z,7.30
2023-02-13T00:08:23.328Z,7.30
2023-02-13T00:10:51.035Z,7.30
2023-02-13T00:13:18.691Z,7.30
2023-02-13T00:15:46.387Z,7.30
2023-02-13T00:18:14.054Z,7.30
2023-02-13T00:20:41.796Z,7.20
2023-02-13T00:23:09.445Z,7.20
2023-02-13T00:25:37.101Z,7.20
2023-02-13T00:28:04.812Z,7.20
2023-02-13T00:30:33.199Z,7.20
2023-02-13T00:33:00.954Z,7.20
2023-02-13T00:35:28.616Z,7.20
2023-02-13T00:37:56.259Z,7.20
2023-02-13T00:40:25.673Z,7.20
2023-02-13T00:42:53.334Z,7.20
2023-02-13T00:45:21.045Z,7.20
2023-02-13T00:47:48.668Z,7.20
2023-02-13T00:50:16.600Z,7.20
2023-02-13T00:52:44.397Z,7.20
2023-02-13T00:55:13.613Z,7.20
2023-02-13T00:57:41.311Z,7.20
2023-02-13T01:00:09.646Z,7.20
2023-02-13T01:02:37.419Z,7.10
2023-02-13T01:05:05.325Z,7.20
2023-02-13T01:07:32.938Z,7.20
2023-02-13T01:10:00.665Z,7.20
2023-02-13T01:12:28.421Z,7.20
2023-02-13T01:14:56.142Z,7.30
2023-02-13T01:17:24.160Z,7.30
2023-02-13T01:19:51.785Z,7.20
2023-02-13T01:22:19.482Z,7.20
2023-02-13T01:24:49.941Z,7.20
2023-02-13T01:27:18.143Z,7.10
2023-02-13T01:29:45.819Z,7.20
2023-02-13T01:32:13.686Z,7.20
2023-02-13T01:34:41.392Z,7.20
2023-02-13T01:37:09.103Z,7.20
2023-02-13T01:39:36.766Z,7.10
2023-02-13T01:42:05.038Z,7.10
2023-02-13T01:44:55.374Z,7.10
2023-02-13T01:47:41.290Z,7.10
2023-02-13T01:50:18.183Z,7.10
2023-02-13T01:53:02.662Z,7.00
2023-02-13T01:55:33.145Z,7.00
2023-02-13T01:58:10.132Z,7.00
2023-02-13T02:00:39.747Z,6.90
2023-02-13T02:03:32.701Z,6.90
2023-02-13T02:06:12.701Z,6.90
2023-02-13T02:08:40.930Z,6.90
2023-02-13T02:11:26.264Z,6.90
2023-02-13T02:13:54.932Z,6.80
2023-02-13T02:16:33.286Z,6.80
2023-02-13T02:19:10.613Z,6.80
2023-02-13T02:22:17.360Z,6.70
2023-02-13T02:25:16.825Z,6.70
2023-02-13T02:27:59.546Z,6.60
2023-02-13T02:30:47.522Z,6.60
2023-02-13T02:33:47.033Z,6.60
2023-02-13T02:36:52.614Z,6.50
2023-02-13T02:40:24.042Z,6.50
2023-02-13T02:43:11.528Z,6.40
2023-02-13T02:46:18.498Z,6.40
2023-02-13T02:49:21.518Z,6.30
2023-02-13T02:51:54.907Z,6.30
2023-02-13T02:54:45.637Z,6.30
2023-02-13T02:57:23.428Z,6.30
2023-02-13T03:00:16.513Z,6.20
2023-02-13T03:03:02.595Z,6.20
2023-02-13T03:05:51.616Z,6.20
2023-02-13T03:08:39.503Z,6.20
2023-02-13T03:11:25.864Z,6.20
2023-02-13T03:13:54.498Z,6.20
2023-02-13T03:16:44.051Z,6.20
2023-02-13T03:19:49.087Z,6.20
2023-02-13T03:22:59.780Z,6.20
2023-02-13T03:25:37.470Z,6.20
2023-02-13T03:28:33.774Z,6.20
2023-02-13T03:31:42.455Z,6.30
2023-02-13T03:34:17.352Z,6.30
2023-02-13T03:37:21.609Z,6.40
2023-02-13T03:40:04.106Z,6.40
2023-02-13T03:42:53.261Z,6.40
2023-02-13T03:45:56.733Z,6.40
2023-02-13T03:48:53.776Z,6.50
2023-02-13T03:52:00.357Z,6.50
2023-02-13T03:55:14.431Z,6.60
2023-02-13T03:58:03.871Z,6.60
2023-02-13T04:00:41.139Z,6.70
2023-02-13T04:03:31.690Z,6.70
2023-02-13T04:06:30.577Z,6.70
2023-02-13T04:08:58.510Z,6.70
2023-02-13T04:11:36.410Z,6.70
2023-02-13T04:14:33.120Z,6.70
2023-02-13T04:17:09.034Z,6.70
2023-02-13T04:19:37.654Z,6.70
2023-02-13T04:22:05.404Z,6.70
2023-02-13T04:24:33.081Z,6.70
2023-02-13T04:27:00.919Z,6.70
2023-02-13T04:29:28.632Z,6.80
2023-02-13T04:31:56.335Z,6.70
2023-02-13T04:34:24.012Z,6.70
2023-02-13T04:36:51.720Z,6.70
2023-02-13T04:39:19.370Z,6.70
2023-02-13T04:41:47.075Z,6.70
2023-02-13T04:44:14.716Z,6.70
2023-02-13T04:46:42.333Z,6.60
2023-02-13T04:49:11.478Z,6.60
2023-02-13T04:51:39.140Z,6.50
2023-02-13T04:54:06.819Z,6.40
2023-02-13T04:56:34.451Z,6.40
2023-02-13T04:59:02.136Z,6.30
2023-02-13T05:01:30.068Z,6.20
2023-02-13T05:03:57.696Z,6.10
2023-02-13T05:06:25.362Z,6.00
2023-02-13T05:08:53.041Z,5.90
2023-02-13T05:11:20.766Z,5.70
2023-02-13T05:13:48.418Z,5.70
2023-02-13T05:16:16.289Z,5.60
2023-02-13T05:18:44.003Z,5.50
2023-02-13T05:21:30.436Z,5.50
2023-02-13T05:23:58.830Z,5.40
2023-02-13T05:26:26.490Z,5.40
2023-02-13T05:29:12.422Z,5.30
2023-02-13T05:31:40.342Z,5.20
2023-02-13T05:34:08.060Z,5.10
2023-02-13T05:36:35.780Z,5.00
2023-02-13T05:39:03.574Z,5.00
2023-02-13T05:41:31.261Z,4.90
2023-02-13T05:43:58.988Z,4.80
2023-02-13T05:46:26.930Z,4.80
2023-02-13T05:48:54.576Z,4.80
2023-02-13T05:51:22.286Z,4.70
2023-02-13T05:53:49.945Z,4.70
2023-02-13T05:56:17.808Z,4.60
2023-02-13T05:58:45.601Z,4.60
2023-02-13T06:01:13.726Z,4.50
2023-02-13T06:03:41.557Z,4.50
2023-02-13T06:06:09.799Z,4.40
2023-02-13T06:08:37.544Z,4.40
2023-02-13T06:11:05.593Z,4.30
2023-02-13T06:13:33.243Z,4.30
2023-02-13T06:16:00.991Z,4.20
2023-02-13T06:18:28.742Z,4.20
2023-02-13T06:20:56.774Z,4.10
2023-02-13T06:23:24.723Z,4.10
2023-02-13T06:25:52.426Z,4.00
2023-02-13T06:28:20.160Z,4.00
2023-02-13T06:30:49.256Z,3.90
2023-02-13T06:33:16.974Z,3.90
2023-02-13T06:35:44.588Z,3.80
2023-02-13T06:38:12.334Z,3.70
2023-02-13T06:40:40.185Z,3.60
2023-02-13T06:43:07.979Z,3.60
2023-02-13T06:45:35.624Z,3.60
2023-02-13T06:48:03.541Z,3.50
2023-02-13T06:50:31.195Z,3.50
2023-02-13T06:52:58.957Z,3.40
2023-02-13T06:55:26.918Z,3.30
2023-02-13T06:57:54.612Z,3.20
2023-02-13T07:00:22.403Z,3.20
2023-02-13T07:02:50.129Z,3.10
2023-02-13T07:05:18.014Z,3.10
2023-02-13T07:07:45.864Z,3.10
2023-02-13T07:10:14.362Z,3.10
2023-02-13T07:12:42.190Z,3.10
2023-02-13T07:15:10.341Z,3.10
2023-02-13T07:17:38.124Z,3.10
2023-02-13T07:20:07.275Z,3.10
2023-02-13T07:22:35.507Z,3.10
2023-02-13T07:25:03.400Z,3.10
2023-02-13T07:27:31.092Z,3.10
2023-02-13T07:29:58.746Z,3.10
2023-02-13T07:32:26.400Z,3.00
2023-02-13T07:35:01.563Z,3.00
2023-02-13T07:37:31.803Z,2.90
2023-02-13T07:39:59.634Z,2.80
2023-02-13T07:42:27.633Z,2.90
2023-02-13T07:44:55.348Z,2.90
2023-02-13T07:47:22.988Z,2.80
2023-02-13T07:49:50.757Z,2.80
2023-02-13T07:52:18.439Z,2.80
2023-02-13T07:54:48.744Z,2.80
2023-02-13T07:57:17.626Z,2.80
2023-02-13T07:59:45.903Z,2.90
2023-02-13T08:02:15.619Z,3.00
2023-02-13T08:04:46.879Z,3.10
2023-02-13T08:07:16.574Z,3.20
2023-02-13T08:10:06.392Z,3.30
2023-02-13T08:12:36.036Z,3.30
2023-02-13T08:15:04.699Z,3.40
2023-02-13T08:17:32.444Z,3.50
2023-02-13T08:20:00.173Z,3.50
2023-02-13T08:22:27.801Z,3.60
2023-02-13T08:24:55.527Z,3.60
2023-02-13T08:27:24.271Z,3.60
2023-02-13T08:29:51.964Z,3.60
2023-02-13T08:32:20.294Z,3.70
2023-02-13T08:34:48.015Z,3.70
2023-02-13T08:37:16.198Z,3.70
2023-02-13T08:39:44.592Z,3.70
2023-02-13T08:42:15.683Z,3.70
2023-02-13T08:44:44.586Z,3.90
2023-02-13T08:47:12.241Z,3.90
2023-02-13T08:49:39.972Z,4.00
2023-02-13T08:52:07.613Z,4.00
2023-02-13T08:54:38.335Z,4.10
2023-02-13T08:57:06.031Z,4.20
2023-02-13T08:59:33.738Z,4.30
2023-02-13T09:02:01.534Z,4.40
2023-02-13T09:04:29.265Z,4.50
2023-02-13T09:06:56.959Z,4.50
2023-02-13T09:09:24.589Z,4.60
2023-02-13T09:11:53.927Z,4.70
2023-02-13T09:14:24.204Z,4.90
2023-02-13T09:16:52.901Z,4.90
2023-02-13T09:19:20.748Z,5.10
2023-02-13T09:21:48.453Z,5.20
2023-02-13T09:24:16.215Z,5.40
2023-02-13T09:26:43.913Z,5.50
2023-02-13T09:29:11.642Z,5.70
2023-02-13T09:31:39.463Z,5.90
2023-02-13T09:34:07.304Z,6.10
2023-02-13T09:36:36.408Z,6.30
2023-02-13T09:39:04.265Z,6.50
2023-02-13T09:41:40.019Z,6.60
2023-02-13T09:44:33.945Z,6.90
2023-02-13T09:47:15.943Z,7.10
2023-02-13T09:49:55.644Z,7.20
2023-02-13T09:52:23.413Z,7.40
2023-02-13T09:54:51.066Z,7.60
2023-02-13T09:57:29.528Z,7.70
2023-02-13T10:00:17.812Z,7.90
2023-02-13T10:02:57.470Z,8.00
2023-02-13T10:05:57.881Z,8.10
2023-02-13T10:08:34.752Z,8.30
2023-02-13T10:11:22.598Z,8.50
2023-02-13T10:14:18.945Z,8.60
2023-02-13T10:17:12.158Z,8.70
2023-02-13T10:19:55.501Z,8.80
2023-02-13T10:22:37.328Z,8.90
2023-02-13T10:25:20.649Z,9.10
2023-02-13T10:27:59.819Z,9.20
2023-02-13T10:30:33.942Z,9.30
2023-02-13T10:33:19.813Z,9.40
2023-02-13T10:36:18.834Z,9.50
2023-02-13T10:39:06.146Z,9.70
2023-02-13T10:41:59.906Z,9.90
2023-02-13T10:44:52.172Z,9.90
2023-02-13T10:48:10.287Z,10.10
2023-02-13T10:50:43.878Z,10.20
2023-02-13T10:53:14.631Z,10.30
2023-02-13T10:56:09.496Z,10.40
2023-02-13T10:59:12.529Z,10.50
2023-02-13T11:01:46.728Z,10.60
2023-02-13T11:04:19.132Z,10.60
2023-02-13T11:07:00.970Z,10.70
2023-02-13T11:09:31.121Z,10.80
2023-02-13T11:11:58.841Z,10.80
2023-02-13T11:14:27.675Z,11.00
2023-02-13T11:17:06.506Z,11.10
2023-02-13T11:19:48.192Z,11.20
2023-02-13T11:22:42.696Z,11.20
2023-02-13T11:25:22.209Z,11.30
2023-02-13T11:27:53.108Z,11.30
2023-02-13T11:30:23.727Z,11.40
2023-02-13T11:33:27.754Z,11.40
2023-02-13T11:36:15.621Z,11.50
2023-02-13T11:38:44.562Z,11.60
2023-02-13T11:41:15.529Z,11.70
2023-02-13T11:43:53.357Z,11.70
2023-02-13T11:46:26.422Z,11.80
2023-02-13T11:49:06.901Z,11.80
2023-02-13T11:51:39.539Z,11.90
2023-02-13T11:54:37.520Z,11.90
2023-02-13T11:57:30.937Z,11.80
2023-02-13T12:00:01.219Z,11.80
2023-02-13T12:02:32.721Z,11.90
2023-02-13T12:05:23.897Z,12.00
2023-02-13T12:07:52.355Z,12.00
2023-02-13T12:10:29.667Z,12.10
2023-02-13T12:13:12.014Z,12.00
2023-02-13T12:15:40.690Z,12.00
2023-02-13T12:18:36.137Z,12.00
2023-02-13T12:21:25.381Z,12.10
2023-02-13T12:24:16.604Z,12.20
2023-02-13T12:27:30.312Z,12.20
2023-02-13T12:30:28.992Z,12.20
2023-02-13T12:33:42.747Z,12.20
2023-02-13T12:36:19.889Z,12.20
2023-02-13T12:39:02.841Z,12.30
2023-02-13T12:41:41.833Z,12.30
2023-02-13T12:44:27.273Z,12.20
2023-02-13T12:47:06.538Z,12.20
2023-02-13T12:49:53.175Z,12.20
2023-02-13T12:52:58.120Z,12.30
2023-02-13T12:55:47.524Z,12.40
2023-02-13T12:58:32.959Z,12.40
2023-02-13T13:01:06.732Z,12.40
2023-02-13T13:03:52.878Z,12.40
2023-02-13T13:06:41.346Z,12.40
2023-02-13T13:09:15.828Z,12.40
2023-02-13T13:12:13.692Z,12.50
2023-02-13T13:15:21.426Z,12.50
2023-02-13T13:18:18.465Z,12.60
2023-02-13T13:20:58.583Z,12.70
2023-02-13T13:23:43.997Z,12.80
2023-02-13T13:26:47.595Z,12.90
2023-02-13T13:29:52.230Z,13.00
2023-02-13T13:32:21.838Z,13.10
2023-02-13T13:34:49.576Z,13.20
2023-02-13T13:37:29.794Z,13.30
2023-02-13T13:40:54.643Z,13.40
2023-02-13T13:43:36.774Z,13.50
2023-02-13T13:46:16.288Z,13.60
2023-02-13T13:49:02.755Z,13.60
2023-02-13T13:51:31.889Z,13.70
2023-02-13T13:54:05.889Z,13.80
2023-02-13T13:57:02.140Z,13.80
2023-02-13T13:59:38.942Z,13.90
2023-02-13T14:02:19.005Z,13.90
2023-02-13T14:05:19.810Z,13.90
2023-02-13T14:07:52.777Z,14.00
2023-02-13T14:10:26.680Z,14.10
2023-02-13T14:12:57.222Z,14.20
2023-02-13T14:15:39.703Z,14.30
2023-02-13T14:18:13.386Z,14.30
2023-02-13T14:20:51.603Z,14.50
2023-02-13T14:23:34.582Z,14.60
2023-02-13T14:26:17.048Z,14.70
2023-02-13T14:28:50.783Z,14.80
2023-02-13T14:31:34.733Z,14.90
2023-02-13T14:34:08.350Z,15.00
2023-02-13T14:36:40.462Z,15.10
2023-02-13T14:39:31.780Z,15.10
2023-02-13T14:42:02.120Z,15.10
2023-02-13T14:44:44.721Z,14.90
2023-02-13T14:47:44.177Z,14.80
2023-02-13T14:50:28.482Z,14.50
2023-02-13T14:53:00.214Z,14.20
2023-02-13T14:55:36.949Z,13.90
2023-02-13T14:58:25.498Z,13.70
2023-02-13T15:01:01.199Z,13.60
2023-02-13T15:03:41.456Z,13.40
2023-02-13T15:06:36.623Z,13.30
2023-02-13T15:09:34.749Z,13.20
2023-02-13T15:12:02.609Z,13.10
2023-02-13T15:14:37.419Z,13.00
2023-02-13T15:17:24.966Z,13.00
2023-02-13T15:19:56.465Z,12.90
2023-02-13T15:22:36.480Z,12.90
2023-02-13T15:25:06.381Z,12.80
2023-02-13T15:27:43.579Z,12.80
2023-02-13T15:30:26.318Z,12.70
2023-02-13T15:33:19.619Z,12.70
2023-02-13T15:35:47.789Z,12.70
2023-02-13T15:38:44.886Z,12.70
2023-02-13T15:41:23.952Z,12.70
2023-02-13T15:43:56.402Z,12.60
2023-02-13T15:46:34.519Z,12.50
2023-02-13T15:49:26.032Z,12.40
2023-02-13T15:52:34.780Z,12.30
2023-02-13T15:55:03.099Z,12.20
2023-02-13T15:57:31.395Z,12.10
2023-02-13T16:00:01.593Z,12.00
2023-02-13T16:02:47.780Z,12.00
2023-02-13T16:05:26.498Z,12.00
2023-02-13T16:08:03.430Z,11.90
2023-02-13T16:10:36.094Z,11.90
2023-02-13T16:13:07.267Z,11.80
2023-02-13T16:15:37.209Z,11.70
2023-02-13T16:18:06.334Z,11.60
2023-02-13T16:20:35.227Z,11.50
2023-02-13T16:23:18.234Z,11.50
2023-02-13T16:25:48.156Z,11.40
2023-02-13T16:28:25.896Z,11.30
2023-02-13T16:31:04.690Z,11.20
2023-02-13T16:33:43.183Z,11.20
2023-02-13T16:36:10.814Z,11.10
2023-02-13T16:38:47.919Z,10.90
2023-02-13T16:41:28.670Z,10.80
2023-02-13T16:44:22.251Z,10.70
2023-02-13T16:47:23.129Z,10.70
2023-02-13T16:49:56.617Z,10.50
2023-02-13T16:52:28.418Z,10.40
2023-02-13T16:54:59.471Z,10.30
2023-02-13T16:57:35.768Z,10.20
2023-02-13T17:00:20.536Z,10.00
2023-02-13T17:02:50.723Z,9.90
2023-02-13T17:05:27.352Z,9.80
2023-02-13T17:08:01.394Z,9.70
2023-02-13T17:10:38.571Z,9.60
2023-02-13T17:13:09.327Z,9.60
2023-02-13T17:15:37.284Z,9.40
2023-02-13T17:18:05.000Z,9.40
2023-02-13T17:20:34.705Z,9.30
2023-02-13T17:23:07.286Z,9.30
2023-02-13T17:25:37.939Z,9.20
2023-02-13T17:28:19.157Z,9.20
2023-02-13T17:30:50.270Z,9.20
2023-02-13T17:33:30.631Z,9.10
2023-02-13T17:35:58.317Z,9.10
2023-02-13T17:38:26.240Z,9.00
2023-02-13T17:40:53.992Z,9.00
2023-02-13T17:43:21.738Z,8.90
2023-02-13T17:45:50.100Z,8.80
2023-02-13T17:48:18.170Z,8.80
2023-02-13T17:50:46.265Z,8.70
2023-02-13T17:53:24.079Z,8.70
2023-02-13T17:55:52.134Z,8.60
2023-02-13T17:58:19.791Z,8.60
2023-02-13T18:00:47.949Z,8.50
2023-02-13T18:03:15.612Z,8.30
2023-02-13T18:05:43.257Z,8.30
2023-02-13T18:08:10.920Z,8.20
2023-02-13T18:10:40.027Z,8.10
2023-02-13T18:13:08.162Z,7.90
2023-02-13T18:15:45.426Z,7.80
2023-02-13T18:18:16.109Z,7.80
2023-02-13T18:20:44.760Z,7.70
2023-02-13T18:23:14.046Z,7.60
2023-02-13T18:25:41.815Z,7.70
2023-02-13T18:28:09.612Z,7.60
2023-02-13T18:30:37.272Z,7.60
2023-02-13T18:33:05.158Z,7.60
2023-02-13T18:35:33.445Z,7.50
2023-02-13T18:38:01.103Z,7.50
2023-02-13T18:40:28.818Z,7.40
2023-02-13T18:42:56.478Z,7.40
2023-02-13T18:45:24.492Z,7.40
2023-02-13T18:47:52.211Z,7.40
2023-02-13T18:50:19.916Z,7.40
2023-02-13T18:52:47.653Z,7.30
2023-02-13T18:55:15.613Z,7.30
2023-02-13T18:57:45.525Z,7.30
2023-02-13T19:00:14.389Z,7.20
2023-02-13T19:02:42.147Z,7.20
2023-02-13T19:05:09.843Z,7.20
2023-02-13T19:07:37.533Z,7.00
2023-02-13T19:10:07.066Z,6.90
2023-02-13T19:12:34.788Z,6.80
2023-02-13T19:15:03.264Z,6.70
2023-02-13T19:17:30.892Z,6.70
2023-02-13T19:19:58.590Z,6.60
2023-02-13T19:22:26.338Z,6.60
2023-02-13T19:24:54.035Z,6.50
2023-02-13T19:27:21.751Z,6.40
2023-02-13T19:29:49.480Z,6.30
2023-02-13T19:32:17.239Z,6.20
2023-02-13T19:34:44.990Z,6.20
2023-02-13T19:37:12.672Z,6.10
2023-02-13T19:39:40.683Z,6.10
2023-02-13T19:42:08.453Z,6.10
2023-02-13T19:44:36.406Z,6.10
2023-02-13T19:47:04.155Z,6.00
2023-02-13T19:49:31.802Z,6.00
2023-02-13T19:51:59.444Z,6.00
2023-02-13T19:54:27.231Z,6.00
2023-02-13T19:57:00.235Z,5.90
2023-02-13T19:59:27.963Z,5.90
2023-02-13T20:01:55.613Z,5.90
2023-02-13T20:04:24.697Z,5.80
2023-02-13T20:06:57.678Z,5.80
2023-02-13T20:09:25.483Z,5.70
2023-02-13T20:11:53.207Z,5.70
2023-02-13T20:14:20.994Z,5.70
2023-02-13T20:16:48.837Z,5.40
2023-02-13T20:19:16.609Z,5.40
2023-02-13T20:21:45.422Z,5.40
2023-02-13T20:24:13.215Z,5.40
2023-02-13T20:26:41.893Z,5.50
2023-02-13T20:29:09.779Z,5.40
2023-02-13T20:31:41.790Z,5.40
2023-02-13T20:34:10.150Z,5.40
2023-02-13T20:36:37.839Z,5.40
2023-02-13T20:39:07.838Z,5.30
2023-02-13T20:41:37.409Z,5.30
2023-02-13T20:44:10.361Z,5.30
2023-02-13T20:46:42.715Z,5.30
2023-02-13T20:49:12.241Z,5.30
2023-02-13T20:51:39.852Z,5.30
2023-02-13T20:54:07.477Z,5.30
2023-02-13T20:56:35.151Z,5.30
2023-02-13T20:59:05.211Z,5.30
2023-02-13T21:01:41.123Z,5.30
2023-02-13T21:04:11.454Z,5.30
2023-02-13T21:06:41.355Z,5.30
2023-02-13T21:09:10.564Z,5.20
2023-02-13T21:11:42.158Z,5.10
2023-02-13T21:14:13.359Z,5.10
2023-02-13T21:16:42.524Z,5.10
2023-02-13T21:19:16.355Z,5.10
2023-02-13T21:21:44.634Z,5.10
2023-02-13T21:24:22.206Z,5.00
2023-02-13T21:26:52.594Z,5.00
2023-02-13T21:29:20.371Z,5.10
2023-02-13T21:31:48.218Z,5.10
2023-02-13T21:34:18.036Z,5.00
2023-02-13T21:36:46.458Z,5.00
2023-02-13T21:39:15.522Z,5.00
2023-02-13T21:41:45.571Z,4.90
2023-02-13T21:44:14.759Z,5.00
2023-02-13T21:46:43.789Z,5.00
2023-02-13T21:49:19.635Z,5.00
2023-02-13T21:51:47.763Z,5.00
2023-02-13T21:54:15.488Z,4.90
2023-02-13T21:56:44.116Z,5.00
2023-02-13T21:59:16.669Z,4.90
2023-02-13T22:01:47.569Z,4.90
2023-02-13T22:04:15.840Z,4.90
2023-02-13T22:06:46.727Z,4.90
2023-02-13T22:09:16.913Z,4.90
2023-02-13T22:11:45.048Z,4.80
2023-02-13T22:14:17.116Z,4.80
2023-02-13T22:16:46.207Z,4.80
2023-02-13T22:19:16.103Z,4.80
2023-02-13T22:21:44.889Z,4.70
2023-02-13T22:24:13.043Z,4.70
2023-02-13T22:26:45.291Z,4.60
2023-02-13T22:29:15.993Z,4.60
2023-02-13T22:31:43.976Z,4.60
2023-02-13T22:34:13.793Z,4.50
2023-02-13T22:36:42.780Z,4.50
2023-02-13T22:39:11.962Z,4.50
2023-02-13T22:41:40.354Z,4.50
2023-02-13T22:44:08.197Z,4.50
2023-02-13T22:46:36.004Z,4.40
2023-02-13T22:49:04.016Z,4.40
2023-02-13T22:51:36.666Z,4.40
2023-02-13T22:54:06.314Z,4.30
2023-02-13T22:56:34.995Z,4.30
2023-02-13T22:59:03.403Z,4.30
2023-02-13T23:01:31.265Z,4.20
2023-02-13T23:03:59.316Z,4.20
2023-02-13T23:06:27.756Z,4.10
2023-02-13T23:08:55.817Z,4.10
2023-02-13T23:11:45.622Z,4.10
2023-02-13T23:14:14.297Z,4.10
2023-02-13T23:17:01.511Z,4.10
2023-02-13T23:19:30.153Z,4.10
2023-02-13T23:21:59.072Z,4.00
2023-02-13T23:24:28.006Z,3.90
2023-02-13T23:26:55.699Z,4.00
2023-02-13T23:29:23.667Z,3.90
2023-02-13T23:31:51.603Z,3.90
2023-02-13T23:34:19.423Z,3.80
2023-02-13T23:36:47.402Z,3.80
2023-02-13T23:39:15.117Z,3.80
2023-02-13T23:41:42.734Z,3.70
2023-02-13T23:44:10.532Z,3.70
2023-02-13T23:46:38.210Z,3.70
2023-02-13T23:49:07.492Z,3.60
2023-02-13T23:51:35.255Z,3.60
2023-02-13T23:54:03.238Z,3.60
2023-02-13T23:56:31.043Z,3.60
2023-02-13T23:58:58.752Z,3.60
